createdAt,value
2023-04-03T00:03:03.169Z,1.46
2023-04-03T00:13:06.297Z,1.36
2023-04-03T00:23:09.399Z,0.97
2023-04-03T00:33:15.627Z,1.00
2023-04-03T00:43:24.517Z,0.85
2023-04-03T00:53:32.216Z,1.19
2023-04-03T01:03:34.618Z,1.25
2023-04-03T01:13:40.395Z,1.29
2023-04-03T01:23:53.213Z,1.21
2023-04-03T01:33:58.799Z,1.87
2023-04-03T01:44:01.535Z,1.34
2023-04-03T01:54:04.188Z,1.18
2023-04-03T02:04:06.917Z,1.33
2023-04-03T02:14:09.460Z,1.57
2023-04-03T02:24:11.782Z,1.09
2023-04-03T02:34:15.015Z,1.52
2023-04-03T02:44:18.984Z,1.04
2023-04-03T02:54:24.323Z,1.00
2023-04-03T03:04:30.477Z,0.59
2023-04-03T03:14:33.051Z,0.51
2023-04-03T03:24:35.318Z,0.32
2023-04-03T03:34:37.677Z,0.78
2023-04-03T03:44:41.649Z,0.38
2023-04-03T03:54:43.918Z,0.42
2023-04-03T04:04:46.884Z,0.37
2023-04-03T04:14:49.660Z,0.50
2023-04-03T04:24:52.384Z,0.29
2023-04-03T04:34:55.074Z,0.10
2023-04-03T04:44:57.925Z,0.17
2023-04-03T04:55:00.980Z,0.16
2023-04-03T05:05:05.342Z,-0.40
2023-04-03T05:15:09.436Z,0.02
2023-04-03T05:25:15.775Z,-0.02
2023-04-03T05:35:20.329Z,0.25
2023-04-03T05:45:26.444Z,0.47
2023-04-03T05:55:28.963Z,-0.31
2023-04-03T06:05:31.349Z,-0.21
2023-04-03T06:15:33.734Z,-0.23
2023-04-03T06:25:36.995Z,0.12
2023-04-03T06:35:40.363Z,-0.10
2023-04-03T06:45:42.818Z,0.81
2023-04-03T06:55:45.281Z,0.42
2023-04-03T07:05:47.579Z,1.15
2023-04-03T07:15:50.324Z,1.14
2023-04-03T07:25:53.424Z,0.36
2023-04-03T07:35:56.211Z,1.17
2023-04-03T07:45:58.673Z,1.03
2023-04-03T07:56:02.557Z,2.14
2023-04-03T08:06:11.926Z,2.27
2023-04-03T08:16:21.398Z,1.42
2023-04-03T08:26:23.931Z,2.30
2023-04-03T08:36:28.517Z,2.77
2023-04-03T08:46:46.958Z,2.21
2023-04-03T08:56:49.323Z,3.00
2023-04-03T09:06:55.397Z,2.67
2023-04-03T09:17:01.244Z,3.05
2023-04-03T09:27:10.476Z,3.64
2023-04-03T09:37:39.038Z,2.68
2023-04-03T09:47:42.914Z,3.03
2023-04-03T09:57:46.943Z,3.84
2023-04-03T10:07:55.052Z,3.53
2023-04-03T10:18:29.477Z,3.52
2023-04-03T10:28:50.486Z,4.13
2023-04-03T10:39:02.264Z,4.62
2023-04-03T10:49:34.958Z,4.08
2023-04-03T10:59:59.626Z,4.99
2023-04-03T11:10:09.528Z,4.53
2023-04-03T11:20:20.021Z,5.70
2023-04-03T11:30:22.032Z,5.70
2023-04-03T11:40:24.442Z,5.46
2023-04-03T11:50:36.153Z,5.15
2023-04-03T12:00:56.810Z,5.69
2023-04-03T12:11:19.917Z,5.48
2023-04-03T12:21:47.671Z,5.47
2023-04-03T12:32:11.822Z,6.51
2023-04-03T12:42:18.844Z,6.22
2023-04-03T12:52:42.766Z,5.97
2023-04-03T13:02:46.321Z,6.35
2023-04-03T13:12:49.667Z,5.63
2023-04-03T13:22:58.705Z,6.24
2023-04-03T13:33:03.911Z,6.39
2023-04-03T13:43:17.584Z,6.08
2023-04-03T13:53:19.788Z,6.24
2023-04-03T14:03:43.339Z,6.75
2023-04-03T14:13:52.491Z,5.60
2023-04-03T14:23:54.668Z,5.94
2023-04-03T14:33:56.886Z,7.13
2023-04-03T14:43:59.348Z,6.05
2023-04-03T14:54:01.877Z,6.20
2023-04-03T15:04:15.080Z,5.43
2023-04-03T15:14:29.585Z,6.30
2023-04-03T15:24:39.384Z,5.46
2023-04-03T15:34:41.725Z,5.95
2023-04-03T15:44:44.174Z,6.26
2023-04-03T15:54:47.258Z,6.01
2023-04-03T16:04:50.131Z,5.68
2023-04-03T16:14:53.097Z,6.05
2023-04-03T16:24:55.514Z,5.65
2023-04-03T16:34:58.580Z,5.69
2023-04-03T16:45:03.873Z,6.17
2023-04-03T16:55:08.018Z,5.80
2023-04-03T17:05:10.799Z,5.48
2023-04-03T17:15:14.102Z,5.92
2023-04-03T17:25:16.644Z,6.33
2023-04-03T17:35:18.812Z,5.07
2023-04-03T17:45:20.994Z,4.35
2023-04-03T17:55:23.187Z,4.67
2023-04-03T18:05:31.552Z,4.78
2023-04-03T18:15:33.743Z,4.42
2023-04-03T18:25:37.831Z,4.37
2023-04-03T18:35:40.058Z,4.90
2023-04-03T18:45:43.673Z,4.63
2023-04-03T18:55:47.351Z,4.77
2023-04-03T19:05:49.538Z,4.43
2023-04-03T19:15:59.148Z,4.37
2023-04-03T19:26:03.862Z,3.97
2023-04-03T19:36:06.721Z,4.10
2023-04-03T19:46:09.632Z,3.62
2023-04-03T19:56:11.963Z,3.59
2023-04-03T20:06:21.754Z,3.92
2023-04-03T20:16:25.818Z,4.22
2023-04-03T20:26:31.646Z,4.07
2023-04-03T20:36:34.932Z,3.69
2023-04-03T20:46:51.290Z,2.60
2023-04-03T20:56:56.044Z,3.05
2023-04-03T21:07:38.832Z,3.06
2023-04-03T21:17:59.824Z,3.22
2023-04-03T21:28:02.870Z,2.91
2023-04-03T21:38:06.579Z,2.54
2023-04-03T21:48:10.338Z,3.41
2023-04-03T21:58:12.627Z,2.91
2023-04-03T22:08:15.172Z,3.03
2023-04-03T22:18:17.602Z,2.59
2023-04-03T22:28:20.646Z,2.50
2023-04-03T22:38:23.056Z,2.24
2023-04-03T22:48:25.700Z,2.29
2023-04-03T22:58:28.797Z,2.38
2023-04-03T23:08:32.495Z,2.17
2023-04-03T23:18:35.154Z,2.33
2023-04-03T23:28:37.325Z,1.86
2023-04-03T23:38:39.434Z,2.01
2023-04-03T23:48:41.642Z,1.37
2023-04-03T23:58:43.736Z,1.48
